createdAt,value
2022-12-11T00:01:42.336Z,0.70
2022-12-11T00:04:09.029Z,0.60
2022-12-11T00:06:35.909Z,0.70
2022-12-11T00:09:02.670Z,0.70
2022-12-11T00:11:29.413Z,0.70
2022-12-11T00:13:56.078Z,0.70
2022-12-11T00:16:26.961Z,0.60
2022-12-11T00:18:54.707Z,0.70
2022-12-11T00:21:21.308Z,0.70
2022-12-11T00:23:48.003Z,0.80
2022-12-11T00:26:15.455Z,0.80
2022-12-11T00:28:43.404Z,0.70
2022-12-11T00:31:14.486Z,0.70
2022-12-11T00:33:41.849Z,0.60
2022-12-11T00:36:13.276Z,0.70
2022-12-11T00:38:40.009Z,0.70
2022-12-11T00:41:06.728Z,0.70
2022-12-11T00:43:33.324Z,0.80
2022-12-11T00:45:59.974Z,0.80
2022-12-11T00:48:26.653Z,0.80
2022-12-11T00:50:53.342Z,0.70
2022-12-11T00:53:20.011Z,0.70
2022-12-11T00:55:46.671Z,0.70
2022-12-11T00:58:13.516Z,0.70
2022-12-11T01:00:41.229Z,0.70
2022-12-11T01:03:08.745Z,0.70
2022-12-11T01:05:36.925Z,0.70
2022-12-11T01:08:03.874Z,0.70
2022-12-11T01:10:31.359Z,0.70
2022-12-11T01:13:07.105Z,0.80
2022-12-11T01:15:41.565Z,0.70
2022-12-11T01:18:13.728Z,0.70
2022-12-11T01:20:42.574Z,0.80
2022-12-11T01:23:12.953Z,0.80
2022-12-11T01:25:40.131Z,0.70
2022-12-11T01:28:07.493Z,0.80
2022-12-11T01:30:35.774Z,0.80
2022-12-11T01:33:03.056Z,0.80
2022-12-11T01:35:29.715Z,0.80
2022-12-11T01:37:56.492Z,0.80
2022-12-11T01:40:23.516Z,0.80
2022-12-11T01:42:50.504Z,0.80
2022-12-11T01:45:33.225Z,0.70
2022-12-11T01:48:12.256Z,0.70
2022-12-11T01:50:54.859Z,0.60
2022-12-11T01:53:26.647Z,0.70
2022-12-11T01:55:55.637Z,0.70
2022-12-11T01:58:26.469Z,0.80
2022-12-11T02:00:54.445Z,0.80
2022-12-11T02:03:21.302Z,0.80
2022-12-11T02:05:48.131Z,0.80
2022-12-11T02:08:15.290Z,0.80
2022-12-11T02:11:08.659Z,0.80
2022-12-11T02:13:57.331Z,0.90
2022-12-11T02:16:36.779Z,0.80
2022-12-11T02:19:16.940Z,0.80
2022-12-11T02:21:51.721Z,0.80
2022-12-11T02:24:27.481Z,0.70
2022-12-11T02:27:19.896Z,0.70
2022-12-11T02:30:06.189Z,0.70
2022-12-11T02:32:39.637Z,0.70
2022-12-11T02:35:18.854Z,0.60
2022-12-11T02:37:48.455Z,0.70
2022-12-11T02:40:21.934Z,0.80
2022-12-11T02:42:50.804Z,0.80
2022-12-11T02:45:19.302Z,0.80
2022-12-11T02:47:48.775Z,0.80
2022-12-11T02:50:20.290Z,0.80
2022-12-11T02:52:50.467Z,0.80
2022-12-11T02:55:17.828Z,0.80
2022-12-11T02:57:46.593Z,0.80
2022-12-11T03:00:13.744Z,0.70
2022-12-11T03:02:41.119Z,0.60
2022-12-11T03:05:09.664Z,0.70
2022-12-11T03:07:39.470Z,0.60
2022-12-11T03:10:08.453Z,0.60
2022-12-11T03:12:38.858Z,0.60
2022-12-11T03:15:08.724Z,0.60
2022-12-11T03:17:45.176Z,0.70
2022-12-11T03:20:26.995Z,0.70
2022-12-11T03:22:57.883Z,0.70
2022-12-11T03:25:56.053Z,0.80
2022-12-11T03:28:29.133Z,0.80
2022-12-11T03:30:56.779Z,0.70
2022-12-11T03:33:31.221Z,0.80
2022-12-11T03:36:05.586Z,0.80
2022-12-11T03:38:37.718Z,0.80
2022-12-11T03:41:06.407Z,0.80
2022-12-11T03:43:33.925Z,0.80
2022-12-11T03:46:01.397Z,0.80
2022-12-11T03:48:33.224Z,0.70
2022-12-11T03:51:03.796Z,0.70
2022-12-11T03:53:31.632Z,0.80
2022-12-11T03:56:00.514Z,0.90
2022-12-11T03:58:27.199Z,0.80
2022-12-11T04:00:53.846Z,0.80
2022-12-11T04:03:20.641Z,0.80
2022-12-11T04:05:51.217Z,0.70
2022-12-11T04:08:20.773Z,0.70
2022-12-11T04:10:48.730Z,0.70
2022-12-11T04:13:15.556Z,0.70
2022-12-11T04:15:42.191Z,0.70
2022-12-11T04:18:28.302Z,0.80
2022-12-11T04:21:14.467Z,0.80
2022-12-11T04:23:59.700Z,0.80
2022-12-11T04:26:26.692Z,0.80
2022-12-11T04:28:53.320Z,0.70
2022-12-11T04:31:22.143Z,0.70
2022-12-11T04:33:49.119Z,0.70
2022-12-11T04:36:16.275Z,0.70
2022-12-11T04:38:42.872Z,0.80
2022-12-11T04:41:12.057Z,0.80
2022-12-11T04:43:39.096Z,0.80
2022-12-11T04:46:10.765Z,0.70
2022-12-11T04:48:38.902Z,0.70
2022-12-11T04:51:05.905Z,0.80
2022-12-11T04:53:33.073Z,0.80
2022-12-11T04:55:59.715Z,0.80
2022-12-11T04:58:26.599Z,0.80
2022-12-11T05:00:53.701Z,0.80
2022-12-11T05:03:20.504Z,0.80
2022-12-11T05:05:52.440Z,0.90
2022-12-11T05:08:20.402Z,0.80
2022-12-11T05:10:58.435Z,0.90
2022-12-11T05:13:25.108Z,1.00
2022-12-11T05:15:51.800Z,1.00
2022-12-11T05:18:18.577Z,1.10
2022-12-11T05:20:45.297Z,1.10
2022-12-11T05:23:12.297Z,1.00
2022-12-11T05:25:38.928Z,1.00
2022-12-11T05:28:05.537Z,1.00
2022-12-11T05:30:32.790Z,1.00
2022-12-11T05:32:59.720Z,1.00
2022-12-11T05:35:26.339Z,1.10
2022-12-11T05:37:52.939Z,1.10
2022-12-11T05:40:19.676Z,1.00
2022-12-11T05:42:46.303Z,1.00
2022-12-11T05:45:13.220Z,1.00
2022-12-11T05:47:40.058Z,1.10
2022-12-11T05:50:07.141Z,1.00
2022-12-11T05:52:33.736Z,1.10
2022-12-11T05:55:00.348Z,0.90
2022-12-11T05:57:26.978Z,0.90
2022-12-11T05:59:53.702Z,0.90
2022-12-11T06:02:20.346Z,1.00
2022-12-11T06:04:47.044Z,0.90
2022-12-11T06:07:14.208Z,1.00
2022-12-11T06:09:40.830Z,1.00
2022-12-11T06:12:07.546Z,1.00
2022-12-11T06:14:34.190Z,0.90
2022-12-11T06:17:01.462Z,1.00
2022-12-11T06:19:31.921Z,1.00
2022-12-11T06:22:01.724Z,1.00
2022-12-11T06:24:28.361Z,1.00
2022-12-11T06:26:54.972Z,1.00
2022-12-11T06:29:21.592Z,1.10
2022-12-11T06:31:48.644Z,1.00
2022-12-11T06:34:15.364Z,1.00
2022-12-11T06:36:41.971Z,0.90
2022-12-11T06:39:08.583Z,0.90
2022-12-11T06:41:35.262Z,0.70
2022-12-11T06:44:02.181Z,0.70
2022-12-11T06:46:28.839Z,0.80
2022-12-11T06:48:55.637Z,0.90
2022-12-11T06:51:23.145Z,1.00
2022-12-11T06:53:54.525Z,1.00
2022-12-11T06:56:22.642Z,0.90
2022-12-11T06:58:49.573Z,0.90
2022-12-11T07:01:25.176Z,0.90
2022-12-11T07:03:56.697Z,0.90
2022-12-11T07:06:24.665Z,0.90
2022-12-11T07:08:51.750Z,1.00
2022-12-11T07:11:20.193Z,1.10
2022-12-11T07:13:47.520Z,1.10
2022-12-11T07:16:16.346Z,1.10
2022-12-11T07:18:49.533Z,1.20
2022-12-11T07:21:16.256Z,1.20
2022-12-11T07:23:43.156Z,1.20
2022-12-11T07:26:12.866Z,1.20
2022-12-11T07:28:40.469Z,1.20
2022-12-11T07:31:15.527Z,1.20
2022-12-11T07:33:43.088Z,1.20
2022-12-11T07:36:11.339Z,1.10
2022-12-11T07:38:38.620Z,1.20
2022-12-11T07:41:08.079Z,1.20
2022-12-11T07:43:36.424Z,1.20
2022-12-11T07:46:06.273Z,1.20
2022-12-11T07:48:35.618Z,1.10
2022-12-11T07:51:12.512Z,1.10
2022-12-11T07:53:39.174Z,1.20
2022-12-11T07:56:06.525Z,1.10
2022-12-11T07:58:33.411Z,1.00
2022-12-11T08:01:00.180Z,1.00
2022-12-11T08:03:26.832Z,1.00
2022-12-11T08:05:53.697Z,1.10
2022-12-11T08:08:20.543Z,1.10
2022-12-11T08:10:47.249Z,1.10
2022-12-11T08:13:13.871Z,1.10
2022-12-11T08:15:42.181Z,1.10
2022-12-11T08:18:08.814Z,1.10
2022-12-11T08:20:38.417Z,1.20
2022-12-11T08:23:05.480Z,1.20
2022-12-11T08:25:32.096Z,1.10
2022-12-11T08:27:58.747Z,1.10
2022-12-11T08:30:25.379Z,1.20
2022-12-11T08:32:52.048Z,1.20
2022-12-11T08:35:18.666Z,1.20
2022-12-11T08:37:45.357Z,1.20
2022-12-11T08:40:12.428Z,1.20
2022-12-11T08:42:39.096Z,1.20
2022-12-11T08:45:06.582Z,1.20
2022-12-11T08:47:33.189Z,1.20
2022-12-11T08:49:59.826Z,1.20
2022-12-11T08:52:26.491Z,1.30
2022-12-11T08:54:53.229Z,1.30
2022-12-11T08:57:19.830Z,1.20
2022-12-11T08:59:46.445Z,1.20
2022-12-11T09:02:13.391Z,1.30
2022-12-11T09:04:40.342Z,1.40
2022-12-11T09:07:06.955Z,1.40
2022-12-11T09:09:33.569Z,1.40
2022-12-11T09:12:01.380Z,1.50
2022-12-11T09:14:28.219Z,1.40
2022-12-11T09:16:55.058Z,1.40
2022-12-11T09:19:22.011Z,1.30
2022-12-11T09:21:48.693Z,1.40
2022-12-11T09:24:15.542Z,1.20
2022-12-11T09:26:42.302Z,1.10
2022-12-11T09:29:09.091Z,1.00
2022-12-11T09:31:36.775Z,1.00
2022-12-11T09:34:09.076Z,1.00
2022-12-11T09:36:38.028Z,1.10
2022-12-11T09:39:06.315Z,1.30
2022-12-11T09:41:59.044Z,1.30
2022-12-11T09:44:51.456Z,1.30
2022-12-11T09:47:27.618Z,1.30
2022-12-11T09:50:25.534Z,1.40
2022-12-11T09:52:58.064Z,1.30
2022-12-11T09:55:29.514Z,1.20
2022-12-11T09:58:14.285Z,1.30
2022-12-11T10:00:55.541Z,1.20
2022-12-11T10:03:50.267Z,1.20
2022-12-11T10:06:32.547Z,1.20
2022-12-11T10:09:08.386Z,1.20
2022-12-11T10:11:50.286Z,1.20
2022-12-11T10:14:55.162Z,1.30
2022-12-11T10:17:36.902Z,1.20
2022-12-11T10:20:19.110Z,1.30
2022-12-11T10:22:46.777Z,1.30
2022-12-11T10:25:39.879Z,1.20
2022-12-11T10:28:18.934Z,1.30
2022-12-11T10:30:51.155Z,1.10
2022-12-11T10:33:22.553Z,1.20
2022-12-11T10:35:57.168Z,1.30
2022-12-11T10:38:42.540Z,1.30
2022-12-11T10:41:21.132Z,1.30
2022-12-11T10:43:49.880Z,1.20
2022-12-11T10:46:20.374Z,1.10
2022-12-11T10:48:50.735Z,1.20
2022-12-11T10:51:17.753Z,1.10
2022-12-11T10:53:49.338Z,1.20
2022-12-11T10:56:16.022Z,1.10
2022-12-11T10:58:49.845Z,1.00
2022-12-11T11:01:21.348Z,1.00
2022-12-11T11:03:58.943Z,1.10
2022-12-11T11:06:26.880Z,1.10
2022-12-11T11:08:56.674Z,1.10
2022-12-11T11:11:28.153Z,1.30
2022-12-11T11:14:17.462Z,1.30
2022-12-11T11:16:47.267Z,1.30
2022-12-11T11:19:27.785Z,1.40
2022-12-11T11:21:58.682Z,1.40
2022-12-11T11:24:29.893Z,1.50
2022-12-11T11:27:13.161Z,1.50
2022-12-11T11:29:41.600Z,1.50
2022-12-11T11:32:26.349Z,1.40
2022-12-11T11:34:52.975Z,1.50
2022-12-11T11:37:31.395Z,1.30
2022-12-11T11:40:14.431Z,1.20
2022-12-11T11:43:01.045Z,1.20
2022-12-11T11:45:36.021Z,1.30
2022-12-11T11:48:24.546Z,1.30
2022-12-11T11:50:52.674Z,1.40
2022-12-11T11:53:30.643Z,1.40
2022-12-11T11:56:24.217Z,1.40
2022-12-11T11:59:03.192Z,1.50
2022-12-11T12:01:30.295Z,1.50
2022-12-11T12:03:58.599Z,1.60
2022-12-11T12:06:51.038Z,1.70
2022-12-11T12:09:45.662Z,2.10
2022-12-11T12:12:41.094Z,2.00
2022-12-11T12:15:36.989Z,1.70
2022-12-11T12:18:25.260Z,1.70
2022-12-11T12:20:58.116Z,1.80
2022-12-11T12:24:15.296Z,1.90
2022-12-11T12:26:53.413Z,1.90
2022-12-11T12:29:25.957Z,1.90
2022-12-11T12:32:07.487Z,2.00
2022-12-11T12:35:00.560Z,2.00
2022-12-11T12:37:30.217Z,1.90
2022-12-11T12:39:59.608Z,1.90
2022-12-11T12:42:37.925Z,2.00
2022-12-11T12:45:34.517Z,1.90
2022-12-11T12:48:02.060Z,1.90
2022-12-11T12:50:40.685Z,1.90
2022-12-11T12:53:08.083Z,1.90
2022-12-11T12:55:36.203Z,2.00
2022-12-11T12:58:05.513Z,2.00
2022-12-11T13:00:39.323Z,2.00
2022-12-11T13:03:20.205Z,1.90
2022-12-11T13:06:02.348Z,1.90
2022-12-11T13:08:35.399Z,2.00
2022-12-11T13:11:10.792Z,2.00
2022-12-11T13:13:39.110Z,2.00
2022-12-11T13:16:17.951Z,2.00
2022-12-11T13:18:47.464Z,2.10
2022-12-11T13:21:33.575Z,2.00
2022-12-11T13:24:17.137Z,1.90
2022-12-11T13:26:43.936Z,1.80
2022-12-11T13:29:32.404Z,1.90
2022-12-11T13:32:20.968Z,1.90
2022-12-11T13:34:57.887Z,1.90
2022-12-11T13:37:33.698Z,1.90
2022-12-11T13:40:05.487Z,1.90
2022-12-11T13:42:37.112Z,1.90
2022-12-11T13:45:05.341Z,1.90
2022-12-11T13:47:32.897Z,2.00
2022-12-11T13:50:22.277Z,2.00
2022-12-11T13:52:57.493Z,1.90
2022-12-11T13:55:30.040Z,1.90
2022-12-11T13:57:57.983Z,2.00
2022-12-11T14:00:30.072Z,1.90
2022-12-11T14:02:59.697Z,2.00
2022-12-11T14:05:26.400Z,2.00
2022-12-11T14:07:59.043Z,2.00
2022-12-11T14:10:27.848Z,2.00
2022-12-11T14:13:02.586Z,2.00
2022-12-11T14:15:31.252Z,2.10
2022-12-11T14:17:59.268Z,2.00
2022-12-11T14:20:28.723Z,2.10
2022-12-11T14:23:26.189Z,2.10
2022-12-11T14:26:02.182Z,2.00
2022-12-11T14:28:37.082Z,2.00
2022-12-11T14:31:05.667Z,2.00
2022-12-11T14:33:45.200Z,2.10
2022-12-11T14:36:13.820Z,2.20
2022-12-11T14:38:49.212Z,2.20
2022-12-11T14:41:21.305Z,2.20
2022-12-11T14:43:58.958Z,2.10
2022-12-11T14:46:38.017Z,2.10
2022-12-11T14:49:38.381Z,2.20
2022-12-11T14:52:05.583Z,2.10
2022-12-11T14:54:40.162Z,2.00
2022-12-11T14:57:08.937Z,2.10
2022-12-11T14:59:45.779Z,2.00
2022-12-11T15:02:32.407Z,2.00
2022-12-11T15:05:13.695Z,2.00
2022-12-11T15:07:43.492Z,1.90
2022-12-11T15:10:31.317Z,2.00
2022-12-11T15:12:58.988Z,2.00
2022-12-11T15:15:28.093Z,2.00
2022-12-11T15:17:54.949Z,1.90
2022-12-11T15:20:25.866Z,2.00
2022-12-11T15:22:53.274Z,2.00
2022-12-11T15:25:22.568Z,2.00
2022-12-11T15:27:54.717Z,2.00
2022-12-11T15:30:27.617Z,2.10
2022-12-11T15:33:23.467Z,2.00
2022-12-11T15:36:01.965Z,2.10
2022-12-11T15:38:39.371Z,2.00
2022-12-11T15:41:11.135Z,1.90
2022-12-11T15:43:38.132Z,1.90
2022-12-11T15:46:06.564Z,1.90
2022-12-11T15:48:33.633Z,2.00
2022-12-11T15:51:00.391Z,2.00
2022-12-11T15:53:27.075Z,2.00
2022-12-11T15:55:53.977Z,2.00
2022-12-11T15:58:23.247Z,2.00
2022-12-11T16:00:50.320Z,1.90
2022-12-11T16:03:19.105Z,1.90
2022-12-11T16:05:46.029Z,1.80
2022-12-11T16:08:15.101Z,1.70
2022-12-11T16:10:43.280Z,1.70
2022-12-11T16:13:11.011Z,1.80
2022-12-11T16:15:40.473Z,1.80
2022-12-11T16:18:11.645Z,1.70
2022-12-11T16:20:40.165Z,1.70
2022-12-11T16:23:08.294Z,1.60
2022-12-11T16:25:38.021Z,1.60
2022-12-11T16:28:05.320Z,1.60
2022-12-11T16:30:33.784Z,1.50
2022-12-11T16:33:00.545Z,1.40
2022-12-11T16:35:29.183Z,1.50
2022-12-11T16:37:56.465Z,1.50
2022-12-11T16:40:23.653Z,1.60
2022-12-11T16:42:50.536Z,1.60
2022-12-11T16:45:22.635Z,1.70
2022-12-11T16:47:49.567Z,1.70
2022-12-11T16:50:17.285Z,1.70
2022-12-11T16:52:44.459Z,1.80
2022-12-11T16:55:13.167Z,1.80
2022-12-11T16:57:41.184Z,1.90
2022-12-11T17:00:11.928Z,1.70
2022-12-11T17:02:39.050Z,1.70
2022-12-11T17:05:06.052Z,1.70
2022-12-11T17:07:33.123Z,1.70
2022-12-11T17:10:01.712Z,1.70
2022-12-11T17:12:28.779Z,1.60
2022-12-11T17:14:56.225Z,1.70
2022-12-11T17:17:23.094Z,1.60
2022-12-11T17:19:49.784Z,1.70
2022-12-11T17:22:16.462Z,1.60
2022-12-11T17:24:43.132Z,1.60
2022-12-11T17:27:09.738Z,1.50
2022-12-11T17:29:36.403Z,1.60
2022-12-11T17:32:03.208Z,1.50
2022-12-11T17:34:36.149Z,1.50
2022-12-11T17:37:05.433Z,1.60
2022-12-11T17:39:32.159Z,1.60
2022-12-11T17:41:58.839Z,1.60
2022-12-11T17:44:26.629Z,1.60
2022-12-11T17:46:53.583Z,1.50
2022-12-11T17:49:20.379Z,1.50
2022-12-11T17:51:47.769Z,1.50
2022-12-11T17:54:14.533Z,1.50
2022-12-11T17:56:41.479Z,1.50
2022-12-11T17:59:08.175Z,1.50
2022-12-11T18:01:34.911Z,1.50
2022-12-11T18:04:02.266Z,1.50
2022-12-11T18:06:29.812Z,1.50
2022-12-11T18:08:56.820Z,1.40
2022-12-11T18:11:24.031Z,1.50
2022-12-11T18:13:52.315Z,1.50
2022-12-11T18:16:33.595Z,1.60
2022-12-11T18:19:00.673Z,1.70
2022-12-11T18:21:31.744Z,1.60
2022-12-11T18:23:59.544Z,1.60
2022-12-11T18:26:26.269Z,1.60
2022-12-11T18:28:53.247Z,1.50
2022-12-11T18:31:21.243Z,1.50
2022-12-11T18:33:48.533Z,1.50
2022-12-11T18:36:16.656Z,1.50
2022-12-11T18:38:43.523Z,1.40
2022-12-11T18:41:12.108Z,1.40
2022-12-11T18:43:40.736Z,1.50
2022-12-11T18:46:13.899Z,1.50
2022-12-11T18:48:42.183Z,1.40
2022-12-11T18:51:12.054Z,1.50
2022-12-11T18:53:39.586Z,1.50
2022-12-11T18:56:15.353Z,1.50
2022-12-11T18:58:42.919Z,1.50
2022-12-11T19:01:13.748Z,1.50
2022-12-11T19:03:43.727Z,1.50
2022-12-11T19:06:13.031Z,1.40
2022-12-11T19:08:39.993Z,1.30
2022-12-11T19:11:07.316Z,1.30
2022-12-11T19:13:35.291Z,1.20
2022-12-11T19:16:02.232Z,1.20
2022-12-11T19:18:28.996Z,1.20
2022-12-11T19:21:04.864Z,1.30
2022-12-11T19:23:35.053Z,1.30
2022-12-11T19:26:02.258Z,1.40
2022-12-11T19:28:29.005Z,1.40
2022-12-11T19:30:55.859Z,1.30
2022-12-11T19:33:22.689Z,1.40
2022-12-11T19:35:49.310Z,1.30
2022-12-11T19:38:15.987Z,1.30
2022-12-11T19:40:43.852Z,1.40
2022-12-11T19:43:11.071Z,1.40
2022-12-11T19:45:38.044Z,1.40
2022-12-11T19:48:05.098Z,1.30
2022-12-11T19:50:35.174Z,1.40
2022-12-11T19:53:01.790Z,1.40
2022-12-11T19:55:28.734Z,1.40
2022-12-11T19:57:55.880Z,1.50
2022-12-11T20:00:22.519Z,1.50
2022-12-11T20:02:49.355Z,1.50
2022-12-11T20:05:16.784Z,1.50
2022-12-11T20:07:46.291Z,1.50
2022-12-11T20:10:13.128Z,1.50
2022-12-11T20:12:39.847Z,1.50
2022-12-11T20:15:06.932Z,1.50
2022-12-11T20:17:33.667Z,1.50
2022-12-11T20:20:00.490Z,1.50
2022-12-11T20:22:27.195Z,1.40
2022-12-11T20:24:53.845Z,1.40
2022-12-11T20:27:20.772Z,1.40
2022-12-11T20:29:47.403Z,1.30
2022-12-11T20:32:14.506Z,1.30
2022-12-11T20:34:41.515Z,1.30
2022-12-11T20:37:08.189Z,1.30
2022-12-11T20:39:35.535Z,1.30
2022-12-11T20:42:04.652Z,1.40
2022-12-11T20:44:32.128Z,1.40
2022-12-11T20:46:58.755Z,1.40
2022-12-11T20:49:26.299Z,1.50
2022-12-11T20:51:53.065Z,1.50
2022-12-11T20:54:19.689Z,1.40
2022-12-11T20:56:46.690Z,1.40
2022-12-11T20:59:13.424Z,1.40
2022-12-11T21:01:40.751Z,1.50
2022-12-11T21:04:07.470Z,1.50
2022-12-11T21:06:38.544Z,1.40
2022-12-11T21:09:18.075Z,1.50
2022-12-11T21:11:44.980Z,1.50
2022-12-11T21:14:11.688Z,1.60
2022-12-11T21:16:38.607Z,1.60
2022-12-11T21:19:06.088Z,1.50
2022-12-11T21:21:36.742Z,1.50
2022-12-11T21:24:03.778Z,1.50
2022-12-11T21:26:30.396Z,1.50
2022-12-11T21:28:57.139Z,1.50
2022-12-11T21:31:23.887Z,1.50
2022-12-11T21:33:50.950Z,1.50
2022-12-11T21:36:17.884Z,1.50
2022-12-11T21:38:46.025Z,1.40
2022-12-11T21:41:23.974Z,1.30
2022-12-11T21:45:06.988Z,1.40
2022-12-11T21:46:45.068Z,1.20
2022-12-11T21:49:12.332Z,1.30
2022-12-11T21:51:46.861Z,1.20
2022-12-11T21:54:19.620Z,1.30
2022-12-11T21:56:50.142Z,1.30
2022-12-11T21:59:22.107Z,1.30
2022-12-11T22:01:55.509Z,1.30
2022-12-11T22:04:28.816Z,1.40
2022-12-11T22:07:06.142Z,1.40
2022-12-11T22:09:34.332Z,1.40
2022-12-11T22:12:26.326Z,1.30
2022-12-11T22:14:57.213Z,1.40
2022-12-11T22:17:32.631Z,1.30
2022-12-11T22:20:04.555Z,1.20
2022-12-11T22:22:46.503Z,1.30
2022-12-11T22:25:22.446Z,1.30
2022-12-11T22:27:51.661Z,1.40
2022-12-11T22:30:22.697Z,1.40
2022-12-11T22:32:53.317Z,1.50
2022-12-11T22:35:31.224Z,1.50
2022-12-11T22:38:01.161Z,1.50
2022-12-11T22:40:31.918Z,1.40
2022-12-11T22:43:02.962Z,1.30
2022-12-11T22:45:38.200Z,1.30
2022-12-11T22:48:09.409Z,1.30
2022-12-11T22:50:56.330Z,1.30
2022-12-11T22:53:31.888Z,1.30
2022-12-11T22:56:16.430Z,1.30
2022-12-11T22:58:49.628Z,1.40
2022-12-11T23:01:25.975Z,1.40
2022-12-11T23:04:06.904Z,1.50
2022-12-11T23:06:38.097Z,1.50
2022-12-11T23:09:08.739Z,1.40
2022-12-11T23:11:39.512Z,1.50
2022-12-11T23:14:11.956Z,1.50
2022-12-11T23:16:46.846Z,1.40
2022-12-11T23:19:16.891Z,1.40
2022-12-11T23:21:46.130Z,1.30
2022-12-11T23:24:19.379Z,1.30
2022-12-11T23:26:54.458Z,1.20
2022-12-11T23:29:27.543Z,1.30
2022-12-11T23:31:57.573Z,1.20
2022-12-11T23:34:27.906Z,1.40
2022-12-11T23:36:55.226Z,1.30
2022-12-11T23:39:22.470Z,1.30
2022-12-11T23:41:50.063Z,1.40
2022-12-11T23:44:18.028Z,1.30
2022-12-11T23:46:48.413Z,1.40
2022-12-11T23:49:18.045Z,1.30
2022-12-11T23:51:48.693Z,1.30
2022-12-11T23:54:16.070Z,1.40
2022-12-11T23:56:46.331Z,1.50
2022-12-11T23:59:14.442Z,1.40
